sensor_id;sensor_type;location;lat;lon;timestamp;P1;durP1;ratioP1;P2;durP2;ratioP2
9948;SDS011;5013;51.840;8.276;2023-04-23T00:01:21;35.37;;;31.87;;
9948;SDS011;5013;51.840;8.276;2023-04-23T00:03:52;38.00;;;34.07;;
9948;SDS011;5013;51.840;8.276;2023-04-23T00:06:20;40.33;;;35.47;;
9948;SDS011;5013;51.840;8.276;2023-04-23T00:08:47;43.60;;;38.17;;
9948;SDS011;5013;51.840;8.276;2023-04-23T00:11:14;42.27;;;37.60;;
9948;SDS011;5013;51.840;8.276;2023-04-23T00:13:40;40.00;;;35.70;;
9948;SDS011;5013;51.840;8.276;2023-04-23T00:16:06;44.43;;;38.80;;
9948;SDS011;5013;51.840;8.276;2023-04-23T00:18:32;43.77;;;37.23;;
9948;SDS011;5013;51.840;8.276;2023-04-23T00:20:57;46.73;;;40.73;;
9948;SDS011;5013;51.840;8.276;2023-04-23T00:23:23;46.73;;;39.20;;
9948;SDS011;5013;51.840;8.276;2023-04-23T00:25:49;45.37;;;39.90;;
9948;SDS011;5013;51.840;8.276;2023-04-23T00:28:14;45.13;;;39.43;;
9948;SDS011;5013;51.840;8.276;2023-04-23T00:30:40;45.47;;;39.97;;
9948;SDS011;5013;51.840;8.276;2023-04-23T00:33:06;44.83;;;38.30;;
9948;SDS011;5013;51.840;8.276;2023-04-23T00:35:31;51.00;;;43.37;;
9948;SDS011;5013;51.840;8.276;2023-04-23T00:37:57;49.27;;;41.80;;
9948;SDS011;5013;51.840;8.276;2023-04-23T00:40:23;50.90;;;41.73;;
9948;SDS011;5013;51.840;8.276;2023-04-23T00:42:49;51.63;;;41.53;;
9948;SDS011;5013;51.840;8.276;2023-04-23T00:45:17;50.77;;;42.57;;
9948;SDS011;5013;51.840;8.276;2023-04-23T00:47:43;53.40;;;42.30;;
9948;SDS011;5013;51.840;8.276;2023-04-23T00:50:10;50.97;;;42.83;;
9948;SDS011;5013;51.840;8.276;2023-04-23T00:52:37;50.67;;;40.87;;
9948;SDS011;5013;51.840;8.276;2023-04-23T00:55:04;53.30;;;41.70;;
9948;SDS011;5013;51.840;8.276;2023-04-23T00:57:31;46.77;;;39.03;;
9948;SDS011;5013;51.840;8.276;2023-04-23T00:59:57;46.83;;;39.90;;
9948;SDS011;5013;51.840;8.276;2023-04-23T01:02:23;45.77;;;38.07;;
9948;SDS011;5013;51.840;8.276;2023-04-23T01:04:51;47.00;;;39.43;;
9948;SDS011;5013;51.840;8.276;2023-04-23T01:07:19;48.47;;;40.37;;
9948;SDS011;5013;51.840;8.276;2023-04-23T01:09:45;52.73;;;41.20;;
9948;SDS011;5013;51.840;8.276;2023-04-23T01:12:11;51.50;;;40.67;;
9948;SDS011;5013;51.840;8.276;2023-04-23T01:14:39;47.03;;;38.37;;
9948;SDS011;5013;51.840;8.276;2023-04-23T01:17:06;51.90;;;40.67;;
9948;SDS011;5013;51.840;8.276;2023-04-23T01:19:33;51.47;;;41.57;;
9948;SDS011;5013;51.840;8.276;2023-04-23T01:21:59;48.17;;;39.67;;
9948;SDS011;5013;51.840;8.276;2023-04-23T01:24:25;52.73;;;42.57;;
9948;SDS011;5013;51.840;8.276;2023-04-23T01:26:55;52.00;;;41.70;;
9948;SDS011;5013;51.840;8.276;2023-04-23T01:29:22;47.80;;;38.70;;
9948;SDS011;5013;51.840;8.276;2023-04-23T01:31:48;49.97;;;41.47;;
9948;SDS011;5013;51.840;8.276;2023-04-23T01:34:15;50.17;;;42.20;;
9948;SDS011;5013;51.840;8.276;2023-04-23T01:36:41;54.80;;;44.23;;
9948;SDS011;5013;51.840;8.276;2023-04-23T01:39:08;55.43;;;44.07;;
9948;SDS011;5013;51.840;8.276;2023-04-23T01:41:33;52.83;;;44.17;;
9948;SDS011;5013;51.840;8.276;2023-04-23T01:44:01;55.33;;;44.30;;
9948;SDS011;5013;51.840;8.276;2023-04-23T01:46:26;52.97;;;44.37;;
9948;SDS011;5013;51.840;8.276;2023-04-23T01:48:53;56.67;;;44.73;;
9948;SDS011;5013;51.840;8.276;2023-04-23T01:51:18;55.93;;;43.20;;
9948;SDS011;5013;51.840;8.276;2023-04-23T01:53:44;52.67;;;41.83;;
9948;SDS011;5013;51.840;8.276;2023-04-23T01:56:10;51.33;;;42.27;;
9948;SDS011;5013;51.840;8.276;2023-04-23T01:58:36;52.10;;;42.03;;
9948;SDS011;5013;51.840;8.276;2023-04-23T02:01:02;59.30;;;45.37;;
9948;SDS011;5013;51.840;8.276;2023-04-23T02:03:27;56.03;;;45.30;;
9948;SDS011;5013;51.840;8.276;2023-04-23T02:05:54;55.80;;;45.37;;
9948;SDS011;5013;51.840;8.276;2023-04-23T02:08:20;58.27;;;46.03;;
9948;SDS011;5013;51.840;8.276;2023-04-23T02:10:46;57.07;;;45.87;;
9948;SDS011;5013;51.840;8.276;2023-04-23T02:13:12;60.17;;;47.53;;
9948;SDS011;5013;51.840;8.276;2023-04-23T02:15:38;58.93;;;45.67;;
9948;SDS011;5013;51.840;8.276;2023-04-23T02:18:04;54.77;;;43.10;;
9948;SDS011;5013;51.840;8.276;2023-04-23T02:20:30;55.60;;;43.47;;
9948;SDS011;5013;51.840;8.276;2023-04-23T02:22:56;54.70;;;43.70;;
9948;SDS011;5013;51.840;8.276;2023-04-23T02:25:22;56.30;;;44.53;;
9948;SDS011;5013;51.840;8.276;2023-04-23T02:27:47;52.57;;;41.00;;
9948;SDS011;5013;51.840;8.276;2023-04-23T02:30:13;53.77;;;43.27;;
9948;SDS011;5013;51.840;8.276;2023-04-23T02:32:39;47.97;;;40.33;;
9948;SDS011;5013;51.840;8.276;2023-04-23T02:35:06;52.33;;;40.73;;
9948;SDS011;5013;51.840;8.276;2023-04-23T02:37:33;52.40;;;42.07;;
9948;SDS011;5013;51.840;8.276;2023-04-23T02:39:59;50.57;;;40.30;;
9948;SDS011;5013;51.840;8.276;2023-04-23T02:42:25;52.27;;;40.67;;
9948;SDS011;5013;51.840;8.276;2023-04-23T02:44:51;56.77;;;42.93;;
9948;SDS011;5013;51.840;8.276;2023-04-23T02:47:16;51.87;;;41.30;;
9948;SDS011;5013;51.840;8.276;2023-04-23T02:49:42;57.77;;;43.03;;
9948;SDS011;5013;51.840;8.276;2023-04-23T02:52:08;62.07;;;45.53;;
9948;SDS011;5013;51.840;8.276;2023-04-23T02:54:34;62.77;;;45.27;;
9948;SDS011;5013;51.840;8.276;2023-04-23T02:57:01;59.47;;;43.90;;
9948;SDS011;5013;51.840;8.276;2023-04-23T02:59:27;61.30;;;44.93;;
9948;SDS011;5013;51.840;8.276;2023-04-23T03:01:53;59.40;;;43.83;;
9948;SDS011;5013;51.840;8.276;2023-04-23T03:04:18;63.20;;;44.47;;
9948;SDS011;5013;51.840;8.276;2023-04-23T03:06:44;63.13;;;45.03;;
9948;SDS011;5013;51.840;8.276;2023-04-23T03:09:10;60.93;;;44.50;;
9948;SDS011;5013;51.840;8.276;2023-04-23T03:11:36;64.60;;;46.47;;
9948;SDS011;5013;51.840;8.276;2023-04-23T03:14:02;64.93;;;45.67;;
9948;SDS011;5013;51.840;8.276;2023-04-23T03:16:28;68.03;;;47.93;;
9948;SDS011;5013;51.840;8.276;2023-04-23T03:18:55;66.93;;;47.57;;
9948;SDS011;5013;51.840;8.276;2023-04-23T03:21:21;73.43;;;51.17;;
9948;SDS011;5013;51.840;8.276;2023-04-23T03:23:47;72.57;;;50.37;;
9948;SDS011;5013;51.840;8.276;2023-04-23T03:26:12;72.43;;;50.37;;
9948;SDS011;5013;51.840;8.276;2023-04-23T03:28:38;72.07;;;50.70;;
9948;SDS011;5013;51.840;8.276;2023-04-23T03:31:04;74.63;;;51.90;;
9948;SDS011;5013;51.840;8.276;2023-04-23T03:33:29;75.47;;;50.67;;
9948;SDS011;5013;51.840;8.276;2023-04-23T03:35:55;77.53;;;52.50;;
9948;SDS011;5013;51.840;8.276;2023-04-23T03:38:20;72.80;;;49.90;;
9948;SDS011;5013;51.840;8.276;2023-04-23T03:40:46;71.37;;;50.47;;
9948;SDS011;5013;51.840;8.276;2023-04-23T03:43:11;72.80;;;50.17;;
9948;SDS011;5013;51.840;8.276;2023-04-23T03:45:37;74.20;;;50.23;;
9948;SDS011;5013;51.840;8.276;2023-04-23T03:48:02;70.90;;;50.87;;
9948;SDS011;5013;51.840;8.276;2023-04-23T03:50:28;69.67;;;48.87;;
9948;SDS011;5013;51.840;8.276;2023-04-23T03:52:54;71.20;;;50.20;;
9948;SDS011;5013;51.840;8.276;2023-04-23T03:55:19;72.30;;;50.20;;
9948;SDS011;5013;51.840;8.276;2023-04-23T03:57:45;70.87;;;51.10;;
9948;SDS011;5013;51.840;8.276;2023-04-23T04:00:11;72.43;;;50.60;;
9948;SDS011;5013;51.840;8.276;2023-04-23T04:02:37;75.60;;;52.10;;
9948;SDS011;5013;51.840;8.276;2023-04-23T04:05:04;67.90;;;50.17;;
9948;SDS011;5013;51.840;8.276;2023-04-23T04:07:30;69.10;;;49.17;;
9948;SDS011;5013;51.840;8.276;2023-04-23T04:09:56;68.17;;;48.00;;
9948;SDS011;5013;51.840;8.276;2023-04-23T04:12:21;73.03;;;49.33;;
9948;SDS011;5013;51.840;8.276;2023-04-23T04:14:47;70.80;;;48.70;;
9948;SDS011;5013;51.840;8.276;2023-04-23T04:17:12;76.50;;;50.77;;
9948;SDS011;5013;51.840;8.276;2023-04-23T04:19:40;73.23;;;49.93;;
9948;SDS011;5013;51.840;8.276;2023-04-23T04:22:06;72.43;;;47.93;;
9948;SDS011;5013;51.840;8.276;2023-04-23T04:24:32;70.63;;;48.57;;
9948;SDS011;5013;51.840;8.276;2023-04-23T04:26:59;75.37;;;50.47;;
9948;SDS011;5013;51.840;8.276;2023-04-23T04:29:25;65.20;;;48.10;;
9948;SDS011;5013;51.840;8.276;2023-04-23T04:31:52;62.70;;;45.93;;
9948;SDS011;5013;51.840;8.276;2023-04-23T04:34:18;73.47;;;46.03;;
9948;SDS011;5013;51.840;8.276;2023-04-23T04:36:44;70.60;;;48.00;;
9948;SDS011;5013;51.840;8.276;2023-04-23T04:39:11;64.70;;;47.53;;
9948;SDS011;5013;51.840;8.276;2023-04-23T04:41:38;64.30;;;45.87;;
9948;SDS011;5013;51.840;8.276;2023-04-23T04:44:05;63.63;;;46.43;;
9948;SDS011;5013;51.840;8.276;2023-04-23T04:46:32;64.73;;;46.33;;
9948;SDS011;5013;51.840;8.276;2023-04-23T04:48:58;66.10;;;45.77;;
9948;SDS011;5013;51.840;8.276;2023-04-23T04:51:24;68.97;;;48.43;;
9948;SDS011;5013;51.840;8.276;2023-04-23T04:53:51;65.97;;;45.27;;
9948;SDS011;5013;51.840;8.276;2023-04-23T04:56:16;63.67;;;45.03;;
9948;SDS011;5013;51.840;8.276;2023-04-23T04:58:42;62.80;;;44.83;;
9948;SDS011;5013;51.840;8.276;2023-04-23T05:01:08;57.80;;;44.33;;
9948;SDS011;5013;51.840;8.276;2023-04-23T05:03:34;57.40;;;42.57;;
9948;SDS011;5013;51.840;8.276;2023-04-23T05:06:01;59.37;;;43.00;;
9948;SDS011;5013;51.840;8.276;2023-04-23T05:08:26;59.83;;;43.90;;
9948;SDS011;5013;51.840;8.276;2023-04-23T05:10:52;58.43;;;42.77;;
9948;SDS011;5013;51.840;8.276;2023-04-23T05:13:19;65.47;;;46.43;;
9948;SDS011;5013;51.840;8.276;2023-04-23T05:15:46;66.73;;;46.30;;
9948;SDS011;5013;51.840;8.276;2023-04-23T05:18:11;65.67;;;47.23;;
9948;SDS011;5013;51.840;8.276;2023-04-23T05:20:37;60.73;;;44.60;;
9948;SDS011;5013;51.840;8.276;2023-04-23T05:23:03;65.70;;;47.20;;
9948;SDS011;5013;51.840;8.276;2023-04-23T05:25:29;63.37;;;44.97;;
9948;SDS011;5013;51.840;8.276;2023-04-23T05:27:55;58.60;;;44.40;;
9948;SDS011;5013;51.840;8.276;2023-04-23T05:30:21;54.63;;;42.47;;
9948;SDS011;5013;51.840;8.276;2023-04-23T05:32:47;56.57;;;42.57;;
9948;SDS011;5013;51.840;8.276;2023-04-23T05:35:12;58.60;;;43.73;;
9948;SDS011;5013;51.840;8.276;2023-04-23T05:37:38;57.77;;;43.67;;
9948;SDS011;5013;51.840;8.276;2023-04-23T05:40:04;64.30;;;46.83;;
9948;SDS011;5013;51.840;8.276;2023-04-23T05:42:31;61.60;;;46.67;;
9948;SDS011;5013;51.840;8.276;2023-04-23T05:44:58;57.93;;;44.77;;
9948;SDS011;5013;51.840;8.276;2023-04-23T05:47:24;57.50;;;45.83;;
9948;SDS011;5013;51.840;8.276;2023-04-23T05:49:49;63.87;;;44.73;;
9948;SDS011;5013;51.840;8.276;2023-04-23T05:52:15;61.60;;;46.73;;
9948;SDS011;5013;51.840;8.276;2023-04-23T05:54:40;73.00;;;46.73;;
9948;SDS011;5013;51.840;8.276;2023-04-23T05:57:06;64.90;;;47.90;;
9948;SDS011;5013;51.840;8.276;2023-04-23T05:59:32;64.80;;;48.60;;
9948;SDS011;5013;51.840;8.276;2023-04-23T06:01:58;65.50;;;48.30;;
9948;SDS011;5013;51.840;8.276;2023-04-23T06:04:24;64.83;;;47.37;;
9948;SDS011;5013;51.840;8.276;2023-04-23T06:06:50;62.43;;;48.90;;
9948;SDS011;5013;51.840;8.276;2023-04-23T06:09:16;71.83;;;51.90;;
9948;SDS011;5013;51.840;8.276;2023-04-23T06:11:42;71.90;;;52.20;;
9948;SDS011;5013;51.840;8.276;2023-04-23T06:14:07;72.50;;;53.23;;
9948;SDS011;5013;51.840;8.276;2023-04-23T06:16:33;70.00;;;51.40;;
9948;SDS011;5013;51.840;8.276;2023-04-23T06:18:58;68.27;;;52.03;;
9948;SDS011;5013;51.840;8.276;2023-04-23T06:21:24;69.97;;;52.20;;
9948;SDS011;5013;51.840;8.276;2023-04-23T06:23:51;61.03;;;48.20;;
9948;SDS011;5013;51.840;8.276;2023-04-23T06:26:17;62.47;;;48.23;;
9948;SDS011;5013;51.840;8.276;2023-04-23T06:28:43;66.17;;;49.37;;
9948;SDS011;5013;51.840;8.276;2023-04-23T06:31:09;56.63;;;46.13;;
9948;SDS011;5013;51.840;8.276;2023-04-23T06:33:35;61.47;;;46.87;;
9948;SDS011;5013;51.840;8.276;2023-04-23T06:36:01;62.47;;;48.10;;
9948;SDS011;5013;51.840;8.276;2023-04-23T06:38:27;60.13;;;45.70;;
9948;SDS011;5013;51.840;8.276;2023-04-23T06:40:53;52.87;;;44.23;;
9948;SDS011;5013;51.840;8.276;2023-04-23T06:43:19;57.30;;;44.83;;
9948;SDS011;5013;51.840;8.276;2023-04-23T06:45:44;52.47;;;40.53;;
9948;SDS011;5013;51.840;8.276;2023-04-23T06:48:10;50.80;;;40.97;;
9948;SDS011;5013;51.840;8.276;2023-04-23T06:50:35;48.47;;;41.13;;
9948;SDS011;5013;51.840;8.276;2023-04-23T06:53:01;48.67;;;39.83;;
9948;SDS011;5013;51.840;8.276;2023-04-23T06:55:26;46.10;;;39.33;;
9948;SDS011;5013;51.840;8.276;2023-04-23T06:57:53;47.67;;;39.97;;
9948;SDS011;5013;51.840;8.276;2023-04-23T07:00:19;45.13;;;37.93;;
9948;SDS011;5013;51.840;8.276;2023-04-23T07:02:46;44.77;;;37.40;;
9948;SDS011;5013;51.840;8.276;2023-04-23T07:05:12;43.60;;;38.10;;
9948;SDS011;5013;51.840;8.276;2023-04-23T07:07:37;43.13;;;35.83;;
9948;SDS011;5013;51.840;8.276;2023-04-23T07:10:04;42.93;;;36.10;;
9948;SDS011;5013;51.840;8.276;2023-04-23T07:12:31;38.87;;;34.33;;
9948;SDS011;5013;51.840;8.276;2023-04-23T07:14:56;37.90;;;33.60;;
9948;SDS011;5013;51.840;8.276;2023-04-23T07:17:22;33.77;;;30.07;;
9948;SDS011;5013;51.840;8.276;2023-04-23T07:19:47;39.33;;;31.00;;
9948;SDS011;5013;51.840;8.276;2023-04-23T07:22:13;35.93;;;30.27;;
9948;SDS011;5013;51.840;8.276;2023-04-23T07:24:38;35.30;;;31.03;;
9948;SDS011;5013;51.840;8.276;2023-04-23T07:27:05;34.73;;;30.53;;
9948;SDS011;5013;51.840;8.276;2023-04-23T07:29:31;31.43;;;28.10;;
9948;SDS011;5013;51.840;8.276;2023-04-23T07:31:56;32.03;;;28.73;;
9948;SDS011;5013;51.840;8.276;2023-04-23T07:38:02;33.67;;;27.93;;
9948;SDS011;5013;51.840;8.276;2023-04-23T07:40:28;31.97;;;28.33;;
9948;SDS011;5013;51.840;8.276;2023-04-23T07:42:53;31.37;;;27.30;;
9948;SDS011;5013;51.840;8.276;2023-04-23T07:45:19;29.50;;;26.50;;
9948;SDS011;5013;51.840;8.276;2023-04-23T07:47:45;26.50;;;23.63;;
9948;SDS011;5013;51.840;8.276;2023-04-23T07:50:11;16.47;;;14.97;;
9948;SDS011;5013;51.840;8.276;2023-04-23T07:52:37;14.60;;;13.20;;
9948;SDS011;5013;51.840;8.276;2023-04-23T07:55:03;13.27;;;12.00;;
9948;SDS011;5013;51.840;8.276;2023-04-23T07:57:29;13.03;;;11.93;;
9948;SDS011;5013;51.840;8.276;2023-04-23T07:59:55;12.63;;;11.53;;
9948;SDS011;5013;51.840;8.276;2023-04-23T08:02:20;12.63;;;11.60;;
9948;SDS011;5013;51.840;8.276;2023-04-23T08:04:50;11.33;;;10.27;;
9948;SDS011;5013;51.840;8.276;2023-04-23T08:07:15;13.13;;;11.93;;
9948;SDS011;5013;51.840;8.276;2023-04-23T08:09:41;12.97;;;11.83;;
9948;SDS011;5013;51.840;8.276;2023-04-23T08:12:07;11.87;;;10.87;;
9948;SDS011;5013;51.840;8.276;2023-04-23T08:14:32;11.67;;;10.67;;
9948;SDS011;5013;51.840;8.276;2023-04-23T08:16:58;11.13;;;10.03;;
9948;SDS011;5013;51.840;8.276;2023-04-23T08:19:23;12.03;;;10.87;;
9948;SDS011;5013;51.840;8.276;2023-04-23T08:21:49;11.20;;;10.20;;
9948;SDS011;5013;51.840;8.276;2023-04-23T08:24:16;12.63;;;10.73;;
9948;SDS011;5013;51.840;8.276;2023-04-23T08:26:42;10.67;;;9.77;;
9948;SDS011;5013;51.840;8.276;2023-04-23T08:29:07;12.57;;;10.70;;
9948;SDS011;5013;51.840;8.276;2023-04-23T08:31:33;10.47;;;9.67;;
9948;SDS011;5013;51.840;8.276;2023-04-23T08:33:58;11.33;;;9.17;;
9948;SDS011;5013;51.840;8.276;2023-04-23T08:36:24;8.93;;;8.13;;
9948;SDS011;5013;51.840;8.276;2023-04-23T08:38:50;9.23;;;8.43;;
9948;SDS011;5013;51.840;8.276;2023-04-23T08:41:17;9.07;;;8.30;;
9948;SDS011;5013;51.840;8.276;2023-04-23T08:43:51;8.23;;;7.43;;
9948;SDS011;5013;51.840;8.276;2023-04-23T08:46:43;9.70;;;8.53;;
9948;SDS011;5013;51.840;8.276;2023-04-23T08:49:12;9.27;;;8.47;;
9948;SDS011;5013;51.840;8.276;2023-04-23T08:51:40;9.90;;;9.03;;
9948;SDS011;5013;51.840;8.276;2023-04-23T08:54:14;8.27;;;7.53;;
9948;SDS011;5013;51.840;8.276;2023-04-23T08:56:43;14.97;;;10.00;;
9948;SDS011;5013;51.840;8.276;2023-04-23T08:59:10;10.00;;;9.07;;
9948;SDS011;5013;51.840;8.276;2023-04-23T09:01:35;8.60;;;7.83;;
9948;SDS011;5013;51.840;8.276;2023-04-23T09:04:01;8.03;;;7.43;;
9948;SDS011;5013;51.840;8.276;2023-04-23T09:06:28;9.30;;;8.50;;
9948;SDS011;5013;51.840;8.276;2023-04-23T09:08:56;9.40;;;8.40;;
9948;SDS011;5013;51.840;8.276;2023-04-23T09:11:23;9.07;;;8.23;;
9948;SDS011;5013;51.840;8.276;2023-04-23T09:13:51;7.90;;;7.40;;
9948;SDS011;5013;51.840;8.276;2023-04-23T09:16:17;10.10;;;7.90;;
9948;SDS011;5013;51.840;8.276;2023-04-23T09:18:42;9.70;;;8.40;;
9948;SDS011;5013;51.840;8.276;2023-04-23T09:21:08;9.80;;;8.77;;
9948;SDS011;5013;51.840;8.276;2023-04-23T09:23:37;9.33;;;8.43;;
9948;SDS011;5013;51.840;8.276;2023-04-23T09:26:05;7.83;;;7.20;;
9948;SDS011;5013;51.840;8.276;2023-04-23T09:28:34;9.73;;;7.23;;
9948;SDS011;5013;51.840;8.276;2023-04-23T09:31:00;10.13;;;6.87;;
9948;SDS011;5013;51.840;8.276;2023-04-23T09:33:26;8.80;;;6.17;;
9948;SDS011;5013;51.840;8.276;2023-04-23T09:35:52;6.73;;;6.17;;
9948;SDS011;5013;51.840;8.276;2023-04-23T09:38:18;6.83;;;5.63;;
9948;SDS011;5013;51.840;8.276;2023-04-23T09:40:44;5.00;;;4.60;;
9948;SDS011;5013;51.840;8.276;2023-04-23T09:43:10;5.83;;;4.67;;
9948;SDS011;5013;51.840;8.276;2023-04-23T09:45:36;6.00;;;5.43;;
9948;SDS011;5013;51.840;8.276;2023-04-23T09:48:01;6.20;;;5.20;;
9948;SDS011;5013;51.840;8.276;2023-04-23T09:50:31;6.40;;;5.80;;
9948;SDS011;5013;51.840;8.276;2023-04-23T09:53:01;6.23;;;5.73;;
9948;SDS011;5013;51.840;8.276;2023-04-23T09:55:33;6.27;;;5.77;;
9948;SDS011;5013;51.840;8.276;2023-04-23T09:58:05;6.80;;;6.07;;
9948;SDS011;5013;51.840;8.276;2023-04-23T10:00:35;7.10;;;6.10;;
9948;SDS011;5013;51.840;8.276;2023-04-23T10:03:02;6.37;;;5.93;;
9948;SDS011;5013;51.840;8.276;2023-04-23T10:05:28;9.00;;;6.40;;
9948;SDS011;5013;51.840;8.276;2023-04-23T10:07:55;6.53;;;6.07;;
9948;SDS011;5013;51.840;8.276;2023-04-23T10:10:21;6.77;;;6.17;;
9948;SDS011;5013;51.840;8.276;2023-04-23T10:12:49;6.87;;;6.37;;
9948;SDS011;5013;51.840;8.276;2023-04-23T10:15:17;7.97;;;6.33;;
9948;SDS011;5013;51.840;8.276;2023-04-23T10:17:43;7.80;;;6.50;;
9948;SDS011;5013;51.840;8.276;2023-04-23T10:20:11;7.13;;;6.53;;
9948;SDS011;5013;51.840;8.276;2023-04-23T10:22:37;6.13;;;5.63;;
9948;SDS011;5013;51.840;8.276;2023-04-23T10:25:08;6.10;;;5.23;;
9948;SDS011;5013;51.840;8.276;2023-04-23T10:27:42;5.97;;;5.33;;
9948;SDS011;5013;51.840;8.276;2023-04-23T10:30:11;7.37;;;6.10;;
9948;SDS011;5013;51.840;8.276;2023-04-23T10:32:38;6.17;;;5.60;;
9948;SDS011;5013;51.840;8.276;2023-04-23T10:35:05;8.57;;;5.70;;
9948;SDS011;5013;51.840;8.276;2023-04-23T10:37:32;6.00;;;5.50;;
9948;SDS011;5013;51.840;8.276;2023-04-23T10:40:06;6.37;;;5.77;;
9948;SDS011;5013;51.840;8.276;2023-04-23T10:42:35;6.00;;;5.50;;
9948;SDS011;5013;51.840;8.276;2023-04-23T10:45:06;7.10;;;6.40;;
9948;SDS011;5013;51.840;8.276;2023-04-23T10:47:37;5.53;;;5.13;;
9948;SDS011;5013;51.840;8.276;2023-04-23T10:50:18;6.43;;;5.93;;
9948;SDS011;5013;51.840;8.276;2023-04-23T10:52:45;8.80;;;5.90;;
9948;SDS011;5013;51.840;8.276;2023-04-23T10:55:18;5.97;;;5.47;;
9948;SDS011;5013;51.840;8.276;2023-04-23T11:06:05;6.40;;;5.83;;
9948;SDS011;5013;51.840;8.276;2023-04-23T11:08:31;6.40;;;5.90;;
9948;SDS011;5013;51.840;8.276;2023-04-23T11:10:59;6.90;;;6.23;;
9948;SDS011;5013;51.840;8.276;2023-04-23T11:13:27;10.57;;;5.40;;
9948;SDS011;5013;51.840;8.276;2023-04-23T11:18:53;9.07;;;5.03;;
9948;SDS011;5013;51.840;8.276;2023-04-23T11:21:55;5.83;;;4.93;;
9948;SDS011;5013;51.840;8.276;2023-04-23T11:24:23;10.37;;;5.07;;
9948;SDS011;5013;51.840;8.276;2023-04-23T11:26:52;7.00;;;5.07;;
9948;SDS011;5013;51.840;8.276;2023-04-23T11:29:22;5.63;;;4.60;;
9948;SDS011;5013;51.840;8.276;2023-04-23T11:31:49;5.67;;;5.27;;
9948;SDS011;5013;51.840;8.276;2023-04-23T11:34:16;10.17;;;6.20;;
9948;SDS011;5013;51.840;8.276;2023-04-23T11:36:42;6.60;;;5.77;;
9948;SDS011;5013;51.840;8.276;2023-04-23T11:39:08;6.37;;;5.10;;
9948;SDS011;5013;51.840;8.276;2023-04-23T11:41:36;5.47;;;4.97;;
9948;SDS011;5013;51.840;8.276;2023-04-23T11:44:02;7.50;;;5.73;;
9948;SDS011;5013;51.840;8.276;2023-04-23T11:46:28;7.23;;;5.03;;
9948;SDS011;5013;51.840;8.276;2023-04-23T11:48:54;6.83;;;5.37;;
9948;SDS011;5013;51.840;8.276;2023-04-23T11:51:26;5.63;;;5.23;;
9948;SDS011;5013;51.840;8.276;2023-04-23T11:53:52;8.40;;;5.20;;
9948;SDS011;5013;51.840;8.276;2023-04-23T11:56:18;5.83;;;4.77;;
9948;SDS011;5013;51.840;8.276;2023-04-23T11:58:57;4.50;;;4.10;;
9948;SDS011;5013;51.840;8.276;2023-04-23T12:01:24;6.73;;;3.57;;
9948;SDS011;5013;51.840;8.276;2023-04-23T12:03:49;4.47;;;3.73;;
9948;SDS011;5013;51.840;8.276;2023-04-23T12:06:16;4.50;;;4.10;;
9948;SDS011;5013;51.840;8.276;2023-04-23T12:08:44;4.13;;;3.70;;
9948;SDS011;5013;51.840;8.276;2023-04-23T12:11:11;4.07;;;3.67;;
9948;SDS011;5013;51.840;8.276;2023-04-23T12:13:38;3.30;;;3.10;;
9948;SDS011;5013;51.840;8.276;2023-04-23T12:16:04;5.60;;;3.40;;
9948;SDS011;5013;51.840;8.276;2023-04-23T12:21:04;7.07;;;3.00;;
9948;SDS011;5013;51.840;8.276;2023-04-23T12:23:33;4.83;;;3.10;;
9948;SDS011;5013;51.840;8.276;2023-04-23T12:26:00;3.47;;;3.00;;
9948;SDS011;5013;51.840;8.276;2023-04-23T12:28:27;4.97;;;2.93;;
9948;SDS011;5013;51.840;8.276;2023-04-23T12:30:57;3.70;;;3.07;;
9948;SDS011;5013;51.840;8.276;2023-04-23T12:33:27;2.90;;;2.60;;
9948;SDS011;5013;51.840;8.276;2023-04-23T12:35:54;3.50;;;2.37;;
9948;SDS011;5013;51.840;8.276;2023-04-23T12:40:53;2.80;;;2.50;;
9948;SDS011;5013;51.840;8.276;2023-04-23T12:43:20;4.47;;;2.20;;
9948;SDS011;5013;51.840;8.276;2023-04-23T12:45:46;3.43;;;2.00;;
9948;SDS011;5013;51.840;8.276;2023-04-23T12:48:12;5.13;;;2.00;;
9948;SDS011;5013;51.840;8.276;2023-04-23T12:50:38;2.80;;;1.90;;
9948;SDS011;5013;51.840;8.276;2023-04-23T12:53:04;3.70;;;1.70;;
9948;SDS011;5013;51.840;8.276;2023-04-23T12:55:30;2.03;;;1.70;;
9948;SDS011;5013;51.840;8.276;2023-04-23T12:57:56;2.30;;;1.73;;
9948;SDS011;5013;51.840;8.276;2023-04-23T13:00:23;1.67;;;1.57;;
9948;SDS011;5013;51.840;8.276;2023-04-23T13:02:49;1.53;;;1.43;;
9948;SDS011;5013;51.840;8.276;2023-04-23T13:05:15;1.67;;;1.57;;
9948;SDS011;5013;51.840;8.276;2023-04-23T13:07:40;2.80;;;2.00;;
9948;SDS011;5013;51.840;8.276;2023-04-23T13:10:07;4.23;;;2.20;;
9948;SDS011;5013;51.840;8.276;2023-04-23T13:12:33;2.23;;;1.50;;
9948;SDS011;5013;51.840;8.276;2023-04-23T13:14:59;4.27;;;1.77;;
9948;SDS011;5013;51.840;8.276;2023-04-23T13:17:25;1.80;;;1.70;;
9948;SDS011;5013;51.840;8.276;2023-04-23T13:19:54;3.40;;;1.60;;
9948;SDS011;5013;51.840;8.276;2023-04-23T13:22:21;2.37;;;1.37;;
9948;SDS011;5013;51.840;8.276;2023-04-23T13:24:46;1.70;;;1.60;;
9948;SDS011;5013;51.840;8.276;2023-04-23T13:27:12;1.60;;;1.50;;
9948;SDS011;5013;51.840;8.276;2023-04-23T13:29:38;2.53;;;1.50;;
9948;SDS011;5013;51.840;8.276;2023-04-23T13:32:04;1.73;;;1.57;;
9948;SDS011;5013;51.840;8.276;2023-04-23T13:34:30;3.80;;;1.70;;
9948;SDS011;5013;51.840;8.276;2023-04-23T13:36:58;1.77;;;1.47;;
9948;SDS011;5013;51.840;8.276;2023-04-23T13:39:24;2.30;;;1.50;;
9948;SDS011;5013;51.840;8.276;2023-04-23T13:41:49;2.93;;;1.83;;
9948;SDS011;5013;51.840;8.276;2023-04-23T13:44:15;2.00;;;1.80;;
9948;SDS011;5013;51.840;8.276;2023-04-23T13:46:41;2.27;;;1.80;;
9948;SDS011;5013;51.840;8.276;2023-04-23T13:49:07;2.00;;;1.90;;
9948;SDS011;5013;51.840;8.276;2023-04-23T13:51:32;4.13;;;1.67;;
9948;SDS011;5013;51.840;8.276;2023-04-23T13:53:58;1.37;;;1.20;;
9948;SDS011;5013;51.840;8.276;2023-04-23T13:56:25;2.87;;;1.50;;
9948;SDS011;5013;51.840;8.276;2023-04-23T13:58:51;4.37;;;1.80;;
9948;SDS011;5013;51.840;8.276;2023-04-23T14:01:17;6.00;;;2.10;;
9948;SDS011;5013;51.840;8.276;2023-04-23T14:03:43;4.40;;;1.80;;
9948;SDS011;5013;51.840;8.276;2023-04-23T14:06:08;2.73;;;1.93;;
9948;SDS011;5013;51.840;8.276;2023-04-23T14:08:34;4.50;;;2.20;;
9948;SDS011;5013;51.840;8.276;2023-04-23T14:11:01;2.83;;;2.00;;
9948;SDS011;5013;51.840;8.276;2023-04-23T14:13:27;2.63;;;1.20;;
9948;SDS011;5013;51.840;8.276;2023-04-23T14:15:57;5.00;;;1.63;;
9948;SDS011;5013;51.840;8.276;2023-04-23T14:18:23;1.83;;;1.40;;
9948;SDS011;5013;51.840;8.276;2023-04-23T14:20:48;2.20;;;1.43;;
9948;SDS011;5013;51.840;8.276;2023-04-23T14:25:40;1.30;;;1.20;;
9948;SDS011;5013;51.840;8.276;2023-04-23T14:28:32;1.70;;;1.60;;
9948;SDS011;5013;51.840;8.276;2023-04-23T14:31:05;2.60;;;1.53;;
9948;SDS011;5013;51.840;8.276;2023-04-23T14:33:31;2.30;;;1.67;;
9948;SDS011;5013;51.840;8.276;2023-04-23T14:35:57;1.53;;;1.30;;
9948;SDS011;5013;51.840;8.276;2023-04-23T14:38:23;2.07;;;1.33;;
9948;SDS011;5013;51.840;8.276;2023-04-23T14:40:50;1.17;;;1.17;;
9948;SDS011;5013;51.840;8.276;2023-04-23T14:43:16;1.27;;;1.17;;
9948;SDS011;5013;51.840;8.276;2023-04-23T14:45:42;1.60;;;1.50;;
9948;SDS011;5013;51.840;8.276;2023-04-23T14:48:07;1.40;;;1.30;;
9948;SDS011;5013;51.840;8.276;2023-04-23T14:50:33;2.70;;;1.03;;
9948;SDS011;5013;51.840;8.276;2023-04-23T14:52:59;1.57;;;1.13;;
9948;SDS011;5013;51.840;8.276;2023-04-23T14:55:25;2.60;;;1.20;;
9948;SDS011;5013;51.840;8.276;2023-04-23T14:57:51;1.30;;;1.20;;
9948;SDS011;5013;51.840;8.276;2023-04-23T15:00:16;2.23;;;1.30;;
9948;SDS011;5013;51.840;8.276;2023-04-23T15:02:42;1.33;;;1.33;;
9948;SDS011;5013;51.840;8.276;2023-04-23T15:05:11;1.30;;;1.30;;
9948;SDS011;5013;51.840;8.276;2023-04-23T15:07:37;3.23;;;1.43;;
9948;SDS011;5013;51.840;8.276;2023-04-23T15:10:06;1.70;;;1.60;;
9948;SDS011;5013;51.840;8.276;2023-04-23T15:12:52;2.60;;;2.10;;
9948;SDS011;5013;51.840;8.276;2023-04-23T15:17:51;7.20;;;2.90;;
9948;SDS011;5013;51.840;8.276;2023-04-23T15:20:18;4.00;;;2.63;;
9948;SDS011;5013;51.840;8.276;2023-04-23T15:22:44;2.87;;;2.63;;